createdAt,value
2023-02-26T00:01:54.984Z,9.40
2023-02-26T00:04:23.897Z,9.10
2023-02-26T00:06:56.631Z,9.90
2023-02-26T00:09:26.714Z,12.00
2023-02-26T00:11:56.060Z,10.40
2023-02-26T00:14:26.254Z,10.50
2023-02-26T00:17:11.955Z,10.60
2023-02-26T00:19:41.421Z,10.70
2023-02-26T00:22:10.708Z,10.30
2023-02-26T00:24:39.631Z,11.30
2023-02-26T00:27:10.510Z,11.60
2023-02-26T00:29:40.296Z,19.20
2023-02-26T00:32:09.419Z,44.30
2023-02-26T00:34:38.864Z,10.80
2023-02-26T00:37:32.534Z,11.60
2023-02-26T00:40:36.595Z,13.60
2023-02-26T00:43:08.095Z,10.30
2023-02-26T00:45:41.263Z,10.90
2023-02-26T00:48:45.925Z,11.40
2023-02-26T00:51:32.592Z,12.30
2023-02-26T00:54:21.185Z,10.90
2023-02-26T00:56:51.766Z,9.80
2023-02-26T00:59:22.208Z,9.40
2023-02-26T01:01:52.252Z,10.20
2023-02-26T01:04:24.057Z,9.90
2023-02-26T01:06:56.262Z,8.90
2023-02-26T01:09:37.959Z,8.50
2023-02-26T01:12:13.396Z,7.90
2023-02-26T01:14:42.579Z,7.60
2023-02-26T01:17:23.746Z,6.50
2023-02-26T01:19:58.864Z,6.80
2023-02-26T01:22:55.524Z,6.60
2023-02-26T01:25:29.607Z,6.40
2023-02-26T01:27:58.404Z,6.50
2023-02-26T01:30:27.731Z,6.40
2023-02-26T01:32:59.352Z,5.40
2023-02-26T01:35:49.762Z,5.70
2023-02-26T01:38:31.646Z,5.70
2023-02-26T01:41:25.513Z,4.80
2023-02-26T01:44:00.162Z,5.00
2023-02-26T01:46:45.363Z,4.30
2023-02-26T01:49:17.677Z,3.80
2023-02-26T01:51:51.309Z,3.70
2023-02-26T01:54:23.949Z,4.20
2023-02-26T01:57:06.445Z,3.80
2023-02-26T01:59:42.944Z,4.30
2023-02-26T02:02:17.194Z,4.00
2023-02-26T02:04:48.418Z,4.30
2023-02-26T02:07:19.306Z,4.20
2023-02-26T02:09:48.364Z,4.00
2023-02-26T02:12:38.762Z,4.20
2023-02-26T02:15:29.008Z,4.10
2023-02-26T02:18:10.645Z,4.20
2023-02-26T02:20:52.573Z,3.90
2023-02-26T02:23:33.570Z,4.20
2023-02-26T02:26:44.936Z,4.00
2023-02-26T02:29:24.941Z,4.80
2023-02-26T02:32:20.679Z,4.80
2023-02-26T02:34:59.726Z,4.40
2023-02-26T02:37:37.474Z,4.80
2023-02-26T02:40:15.271Z,6.20
2023-02-26T02:43:01.719Z,4.40
2023-02-26T02:45:49.464Z,4.90
2023-02-26T02:48:21.641Z,4.90
2023-02-26T02:50:58.678Z,4.20
2023-02-26T02:53:38.504Z,5.20
2023-02-26T02:56:31.098Z,5.40
2023-02-26T02:59:19.813Z,4.40
2023-02-26T03:02:14.266Z,4.90
2023-02-26T03:04:44.402Z,4.10
2023-02-26T03:07:13.526Z,3.90
2023-02-26T03:09:43.814Z,3.60
2023-02-26T03:12:13.427Z,4.50
2023-02-26T03:14:43.482Z,4.10
2023-02-26T03:17:57.403Z,4.20
2023-02-26T03:20:33.265Z,4.10
2023-02-26T03:23:13.969Z,4.20
2023-02-26T03:25:51.800Z,4.20
2023-02-26T03:28:36.731Z,4.50
2023-02-26T03:31:08.142Z,4.20
2023-02-26T03:33:59.910Z,3.80
2023-02-26T03:37:10.506Z,3.50
2023-02-26T03:39:47.560Z,4.30
2023-02-26T03:42:26.511Z,3.60
2023-02-26T03:45:00.334Z,3.30
2023-02-26T03:47:31.347Z,3.30
2023-02-26T03:50:16.303Z,2.80
2023-02-26T03:52:49.331Z,2.80
2023-02-26T03:55:20.707Z,3.20
2023-02-26T03:57:50.504Z,2.40
2023-02-26T04:00:20.221Z,2.50
2023-02-26T04:02:52.946Z,2.20
2023-02-26T04:05:29.358Z,2.20
2023-02-26T04:07:59.447Z,2.20
2023-02-26T04:10:53.988Z,1.90
2023-02-26T04:13:23.154Z,1.70
2023-02-26T04:15:52.371Z,2.20
2023-02-26T04:18:21.822Z,2.50
2023-02-26T04:20:51.443Z,2.20
2023-02-26T04:23:20.750Z,2.50
2023-02-26T04:25:50.776Z,2.30
2023-02-26T04:28:19.728Z,2.60
2023-02-26T04:30:49.603Z,2.50
2023-02-26T04:33:18.583Z,2.70
2023-02-26T04:35:48.276Z,2.40
2023-02-26T04:38:17.022Z,2.70
2023-02-26T04:40:47.408Z,3.10
2023-02-26T04:43:16.269Z,3.00
2023-02-26T04:45:49.189Z,2.80
2023-02-26T04:48:18.334Z,2.80
2023-02-26T04:50:47.820Z,2.50
2023-02-26T04:53:16.590Z,3.00
2023-02-26T04:55:45.631Z,3.10
2023-02-26T04:58:14.769Z,2.70
2023-02-26T05:00:43.906Z,3.30
2023-02-26T05:03:14.302Z,2.90
2023-02-26T05:05:43.565Z,3.00
2023-02-26T05:08:12.595Z,3.00
2023-02-26T05:10:41.553Z,2.70
2023-02-26T05:13:10.570Z,3.00
2023-02-26T05:15:40.051Z,3.20
2023-02-26T05:18:08.966Z,2.90
2023-02-26T05:20:38.793Z,2.90
2023-02-26T05:23:08.966Z,3.00
2023-02-26T05:25:38.136Z,2.90
2023-02-26T05:28:07.128Z,2.80
2023-02-26T05:30:36.496Z,2.50
2023-02-26T05:33:05.346Z,2.50
2023-02-26T05:35:34.346Z,2.60
2023-02-26T05:38:03.847Z,2.30
2023-02-26T05:40:33.019Z,2.50
2023-02-26T05:43:02.169Z,2.60
2023-02-26T05:45:31.604Z,2.80
2023-02-26T05:48:00.500Z,2.60
2023-02-26T05:50:31.020Z,2.60
2023-02-26T05:52:59.907Z,2.60
2023-02-26T05:55:28.984Z,2.60
2023-02-26T05:57:57.627Z,2.50
2023-02-26T06:00:26.602Z,2.50
2023-02-26T06:02:55.605Z,2.80
2023-02-26T06:05:24.545Z,2.50
2023-02-26T06:07:53.716Z,2.70
2023-02-26T06:10:23.036Z,3.50
2023-02-26T06:12:52.099Z,6.50
2023-02-26T06:15:21.228Z,2.10
2023-02-26T06:17:49.922Z,2.30
2023-02-26T06:20:19.079Z,2.30
2023-02-26T06:22:47.996Z,2.10
2023-02-26T06:25:17.177Z,3.00
2023-02-26T06:27:46.534Z,2.70
2023-02-26T06:30:16.008Z,3.70
2023-02-26T06:32:45.816Z,3.60
2023-02-26T06:35:15.594Z,2.60
2023-02-26T06:37:45.946Z,2.80
2023-02-26T06:40:15.613Z,2.80
2023-02-26T06:42:44.738Z,3.00
2023-02-26T06:45:14.111Z,3.00
2023-02-26T06:47:43.127Z,3.40
2023-02-26T06:50:13.215Z,2.50
2023-02-26T06:52:42.540Z,3.30
2023-02-26T06:55:12.439Z,3.00
2023-02-26T06:57:41.337Z,3.60
2023-02-26T07:00:11.671Z,3.10
2023-02-26T07:02:41.604Z,2.00
2023-02-26T07:05:10.837Z,2.30
2023-02-26T07:07:40.276Z,2.20
2023-02-26T07:10:12.935Z,2.00
2023-02-26T07:12:42.453Z,2.00
2023-02-26T07:15:11.547Z,2.50
2023-02-26T07:17:40.517Z,2.40
2023-02-26T07:20:10.783Z,1.70
2023-02-26T07:22:40.984Z,1.70
2023-02-26T07:25:11.511Z,1.70
2023-02-26T07:27:43.627Z,1.80
2023-02-26T07:30:13.665Z,1.70
2023-02-26T07:32:42.867Z,1.60
2023-02-26T07:35:12.629Z,2.20
2023-02-26T07:37:42.400Z,2.10
2023-02-26T07:40:12.296Z,2.10
2023-02-26T07:42:42.039Z,2.10
2023-02-26T07:45:12.223Z,1.90
2023-02-26T07:47:42.170Z,2.40
2023-02-26T07:50:11.751Z,2.50
2023-02-26T07:52:42.533Z,3.10
2023-02-26T07:55:11.651Z,2.30
2023-02-26T07:57:50.914Z,6.20
2023-02-26T08:00:20.153Z,5.00
2023-02-26T08:02:49.175Z,2.30
2023-02-26T08:05:19.729Z,3.30
2023-02-26T08:07:49.516Z,4.50
2023-02-26T08:10:18.699Z,3.00
2023-02-26T08:12:48.824Z,1.70
2023-02-26T08:15:18.853Z,1.40
2023-02-26T08:17:48.274Z,1.60
2023-02-26T08:20:17.506Z,2.00
2023-02-26T08:22:46.961Z,1.40
2023-02-26T08:25:16.349Z,1.50
2023-02-26T08:27:45.710Z,1.80
2023-02-26T08:30:15.193Z,1.50
2023-02-26T08:32:44.749Z,1.30
2023-02-26T08:35:14.592Z,1.60
2023-02-26T08:37:43.864Z,1.60
2023-02-26T08:40:15.249Z,1.60
2023-02-26T08:42:45.142Z,1.70
2023-02-26T08:45:15.323Z,2.20
2023-02-26T08:47:56.134Z,2.10
2023-02-26T08:50:27.667Z,2.00
2023-02-26T08:52:57.832Z,1.90
2023-02-26T08:55:27.568Z,1.70
2023-02-26T08:57:57.036Z,1.80
2023-02-26T09:00:27.200Z,1.70
2023-02-26T09:02:57.669Z,2.40
2023-02-26T09:05:27.727Z,2.20
2023-02-26T09:07:57.354Z,1.90
2023-02-26T09:10:26.629Z,2.20
2023-02-26T09:12:56.080Z,3.20
2023-02-26T09:15:25.460Z,2.10
2023-02-26T09:17:54.555Z,3.20
2023-02-26T09:20:24.487Z,2.50
2023-02-26T09:22:53.632Z,2.20
2023-02-26T09:25:23.050Z,1.90
2023-02-26T09:27:52.306Z,2.10
2023-02-26T09:30:21.775Z,2.20
2023-02-26T09:32:51.508Z,2.10
2023-02-26T09:35:21.297Z,2.10
2023-02-26T09:37:52.188Z,4.90
2023-02-26T09:40:36.497Z,4.80
2023-02-26T09:43:37.565Z,3.00
2023-02-26T09:46:31.606Z,2.20
2023-02-26T09:49:29.257Z,2.70
2023-02-26T09:52:25.237Z,2.50
2023-02-26T09:54:59.407Z,2.20
2023-02-26T09:57:37.128Z,2.40
2023-02-26T10:00:34.904Z,1.90
2023-02-26T10:03:12.907Z,1.50
2023-02-26T10:06:17.416Z,2.30
2023-02-26T10:09:01.734Z,1.40
2023-02-26T10:11:35.282Z,2.00
2023-02-26T10:14:11.240Z,1.50
2023-02-26T10:16:47.002Z,2.80
2023-02-26T10:19:26.169Z,1.40
2023-02-26T10:22:20.540Z,0.40
2023-02-26T10:24:54.757Z,0.50
2023-02-26T10:28:06.538Z,0.30
2023-02-26T10:30:43.389Z,0.30
2023-02-26T10:33:28.830Z,0.20
2023-02-26T10:36:17.699Z,0.50
2023-02-26T10:38:51.980Z,0.20
2023-02-26T10:41:25.965Z,0.60
2023-02-26T10:44:39.665Z,0.50
2023-02-26T10:47:44.617Z,0.40
2023-02-26T10:50:18.451Z,0.60
2023-02-26T10:52:50.330Z,0.50
2023-02-26T10:55:32.089Z,0.30
2023-02-26T10:58:07.187Z,0.40
2023-02-26T11:00:36.220Z,0.40
2023-02-26T11:03:08.085Z,0.60
2023-02-26T11:05:37.594Z,0.60
2023-02-26T11:08:16.477Z,0.50
2023-02-26T11:10:53.243Z,0.50
2023-02-26T11:13:24.908Z,0.40
2023-02-26T11:15:58.407Z,0.50
2023-02-26T11:18:40.203Z,0.30
2023-02-26T11:21:17.613Z,0.40
2023-02-26T11:23:48.005Z,0.20
2023-02-26T11:26:20.131Z,0.40
2023-02-26T11:28:51.479Z,0.40
2023-02-26T11:31:25.481Z,0.40
2023-02-26T11:34:02.977Z,0.30
2023-02-26T11:36:34.453Z,0.40
2023-02-26T11:39:09.101Z,0.50
2023-02-26T11:41:42.712Z,0.40
2023-02-26T11:44:22.298Z,0.40
2023-02-26T11:46:56.767Z,0.50
2023-02-26T11:49:29.497Z,0.50
2023-02-26T11:52:11.647Z,0.50
2023-02-26T11:54:40.897Z,0.50
2023-02-26T11:57:21.494Z,0.40
2023-02-26T11:59:54.523Z,0.70
2023-02-26T12:02:28.505Z,1.30
2023-02-26T12:05:05.145Z,0.70
2023-02-26T12:07:35.448Z,0.40
2023-02-26T12:10:16.561Z,0.60
2023-02-26T12:13:10.411Z,0.70
2023-02-26T12:16:02.241Z,0.40
2023-02-26T12:18:44.816Z,0.50
2023-02-26T12:21:14.285Z,0.60
2023-02-26T12:24:02.889Z,0.50
2023-02-26T12:27:00.929Z,0.50
2023-02-26T12:29:54.392Z,0.40
2023-02-26T12:33:07.155Z,0.40
2023-02-26T12:36:02.686Z,0.60
2023-02-26T12:38:50.190Z,0.40
2023-02-26T12:41:58.197Z,0.50
2023-02-26T12:44:49.663Z,0.60
2023-02-26T12:47:35.268Z,0.70
2023-02-26T12:50:33.433Z,0.60
2023-02-26T12:53:25.921Z,0.40
2023-02-26T12:56:02.633Z,0.60
2023-02-26T12:58:58.831Z,0.40
2023-02-26T13:02:10.418Z,0.40
2023-02-26T13:04:48.801Z,0.50
2023-02-26T13:07:50.509Z,0.50
2023-02-26T13:10:47.650Z,0.50
2023-02-26T13:14:08.436Z,0.50
2023-02-26T13:16:52.268Z,0.40
2023-02-26T13:19:37.010Z,0.40
2023-02-26T13:22:16.576Z,0.40
2023-02-26T13:24:55.807Z,0.40
2023-02-26T13:27:39.764Z,0.40
2023-02-26T13:30:36.666Z,0.50
2023-02-26T13:33:09.036Z,0.50
2023-02-26T13:35:46.304Z,0.30
2023-02-26T13:38:37.919Z,0.40
2023-02-26T13:41:16.873Z,0.30
2023-02-26T13:43:52.268Z,0.40
2023-02-26T13:46:28.222Z,0.30
2023-02-26T13:49:03.797Z,0.40
2023-02-26T13:51:43.621Z,0.30
2023-02-26T13:54:13.573Z,0.30
2023-02-26T13:56:49.216Z,0.40
2023-02-26T13:59:49.993Z,0.20
2023-02-26T14:02:20.961Z,0.40
2023-02-26T14:05:01.874Z,0.30
2023-02-26T14:07:53.553Z,0.30
2023-02-26T14:10:28.487Z,0.20
2023-02-26T14:13:18.018Z,0.20
2023-02-26T14:16:01.674Z,0.30
2023-02-26T14:18:49.411Z,0.30
2023-02-26T14:21:28.323Z,0.40
2023-02-26T14:24:15.482Z,0.30
2023-02-26T14:26:48.405Z,0.30
2023-02-26T14:29:21.782Z,0.30
2023-02-26T14:31:54.934Z,0.30
2023-02-26T14:34:27.478Z,0.30
2023-02-26T14:37:04.625Z,0.30
2023-02-26T14:39:42.201Z,0.30
2023-02-26T14:42:23.995Z,0.30
2023-02-26T14:45:23.712Z,0.20
2023-02-26T14:47:52.926Z,0.20
2023-02-26T14:50:23.516Z,0.30
2023-02-26T14:52:58.741Z,0.40
2023-02-26T14:55:39.925Z,0.40
2023-02-26T14:58:31.413Z,0.40
2023-02-26T15:01:31.904Z,0.50
2023-02-26T15:04:39.400Z,1.60
2023-02-26T15:07:35.899Z,1.10
2023-02-26T15:10:47.617Z,0.70
2023-02-26T15:13:25.984Z,0.40
2023-02-26T15:16:16.626Z,2.20
2023-02-26T15:18:48.026Z,3.90
2023-02-26T15:21:40.671Z,7.80
2023-02-26T15:24:14.916Z,4.30
2023-02-26T15:26:51.894Z,0.70
2023-02-26T15:29:32.186Z,1.20
2023-02-26T15:32:17.330Z,0.40
2023-02-26T15:34:54.923Z,0.40
2023-02-26T15:37:27.399Z,0.80
2023-02-26T15:39:56.868Z,1.80
2023-02-26T15:42:32.842Z,2.10
2023-02-26T15:45:04.713Z,1.10
2023-02-26T15:47:35.056Z,0.70
2023-02-26T15:50:05.084Z,1.50
2023-02-26T15:52:35.272Z,0.90
2023-02-26T15:55:07.434Z,0.90
2023-02-26T15:57:38.118Z,3.10
2023-02-26T16:00:17.875Z,2.20
2023-02-26T16:02:50.529Z,1.90
2023-02-26T16:05:20.637Z,2.00
2023-02-26T16:07:50.618Z,1.10
2023-02-26T16:10:47.149Z,0.60
2023-02-26T16:13:23.372Z,0.40
2023-02-26T16:15:52.832Z,1.00
2023-02-26T16:18:25.086Z,1.20
2023-02-26T16:21:01.840Z,1.00
2023-02-26T16:23:45.731Z,0.90
2023-02-26T16:26:23.730Z,1.00
2023-02-26T16:29:01.547Z,0.70
2023-02-26T16:31:34.126Z,0.50
2023-02-26T16:34:08.732Z,1.00
2023-02-26T16:36:43.989Z,1.50
2023-02-26T16:39:31.759Z,1.80
2023-02-26T16:42:15.309Z,1.00
2023-02-26T16:44:58.837Z,0.60
2023-02-26T16:47:31.505Z,0.60
2023-02-26T16:50:03.316Z,0.50
2023-02-26T16:52:34.595Z,0.70
2023-02-26T16:55:06.117Z,0.60
2023-02-26T16:57:40.402Z,0.70
2023-02-26T17:00:20.629Z,0.60
2023-02-26T17:02:51.261Z,0.70
2023-02-26T17:05:26.804Z,0.60
2023-02-26T17:08:10.051Z,0.60
2023-02-26T17:10:46.481Z,0.90
2023-02-26T17:13:27.869Z,0.80
2023-02-26T17:16:01.009Z,0.50
2023-02-26T17:18:31.491Z,0.50
2023-02-26T17:21:10.636Z,0.40
2023-02-26T17:23:41.270Z,0.60
2023-02-26T17:26:10.251Z,0.50
2023-02-26T17:28:43.330Z,0.50
2023-02-26T17:31:13.550Z,0.90
2023-02-26T17:33:45.108Z,4.70
2023-02-26T17:36:20.781Z,1.60
2023-02-26T17:38:51.206Z,0.90
2023-02-26T17:41:20.769Z,0.80
2023-02-26T17:43:50.368Z,0.90
2023-02-26T17:46:20.304Z,0.80
2023-02-26T17:48:49.817Z,0.60
2023-02-26T17:51:18.828Z,0.70
2023-02-26T17:53:48.392Z,0.80
2023-02-26T17:56:37.971Z,0.60
2023-02-26T17:59:07.871Z,0.50
2023-02-26T18:01:37.706Z,0.40
2023-02-26T18:04:07.341Z,0.60
2023-02-26T18:06:38.716Z,0.50
2023-02-26T18:09:08.702Z,0.70
2023-02-26T18:11:38.835Z,0.70
2023-02-26T18:14:09.611Z,0.60
2023-02-26T18:16:42.340Z,1.20
2023-02-26T18:19:15.733Z,1.10
2023-02-26T18:21:45.092Z,0.70
2023-02-26T18:24:14.704Z,0.70
2023-02-26T18:26:43.932Z,0.70
2023-02-26T18:29:14.358Z,0.80
2023-02-26T18:31:44.119Z,0.60
2023-02-26T18:34:14.053Z,0.70
2023-02-26T18:36:42.889Z,0.60
2023-02-26T18:39:15.967Z,0.60
2023-02-26T18:41:45.232Z,0.70
2023-02-26T18:44:14.492Z,1.10
2023-02-26T18:46:45.338Z,1.20
2023-02-26T18:49:20.563Z,1.20
2023-02-26T18:51:49.737Z,1.00
2023-02-26T18:54:18.761Z,0.50
2023-02-26T18:56:47.870Z,0.60
2023-02-26T18:59:17.010Z,0.50
2023-02-26T19:01:46.688Z,0.50
2023-02-26T19:04:16.158Z,0.40
2023-02-26T19:06:45.749Z,0.50
2023-02-26T19:09:15.888Z,0.50
2023-02-26T19:11:47.035Z,0.60
2023-02-26T19:14:17.313Z,0.50
2023-02-26T19:16:47.559Z,0.30
2023-02-26T19:19:17.654Z,0.40
2023-02-26T19:21:48.660Z,0.40
2023-02-26T19:24:19.410Z,0.50
2023-02-26T19:26:50.165Z,0.60
2023-02-26T19:29:22.214Z,0.60
2023-02-26T19:31:53.633Z,0.70
2023-02-26T19:34:24.335Z,1.20
2023-02-26T19:36:56.089Z,1.20
2023-02-26T19:39:27.526Z,0.70
2023-02-26T19:41:57.421Z,0.50
2023-02-26T19:44:32.401Z,0.40
2023-02-26T19:47:01.789Z,0.40
2023-02-26T19:49:31.683Z,0.40
2023-02-26T19:52:01.937Z,0.50
2023-02-26T19:54:32.362Z,0.60
2023-02-26T19:57:01.712Z,0.50
2023-02-26T19:59:31.598Z,0.50
2023-02-26T20:02:02.180Z,0.30
2023-02-26T20:04:32.144Z,0.40
2023-02-26T20:07:03.354Z,0.40
2023-02-26T20:09:34.271Z,0.50
2023-02-26T20:12:04.898Z,0.50
2023-02-26T20:14:35.634Z,0.40
2023-02-26T20:17:05.648Z,0.50
2023-02-26T20:19:35.594Z,0.40
2023-02-26T20:22:05.469Z,0.30
2023-02-26T20:24:35.000Z,0.30
2023-02-26T20:27:04.313Z,0.30
2023-02-26T20:29:33.804Z,2.40
2023-02-26T20:32:02.636Z,2.40
2023-02-26T20:34:32.954Z,0.90
2023-02-26T20:37:02.927Z,0.90
2023-02-26T20:39:32.479Z,0.50
2023-02-26T20:42:02.132Z,0.60
2023-02-26T20:44:31.886Z,0.40
2023-02-26T20:47:03.084Z,0.50
2023-02-26T20:49:32.304Z,0.40
2023-02-26T20:52:01.815Z,2.70
2023-02-26T20:54:32.403Z,3.00
2023-02-26T20:57:02.133Z,1.90
2023-02-26T20:59:31.896Z,1.50
2023-02-26T21:02:02.759Z,2.40
2023-02-26T21:04:32.144Z,1.00
2023-02-26T21:07:14.087Z,0.40
2023-02-26T21:09:44.877Z,0.40
2023-02-26T21:12:15.140Z,0.20
2023-02-26T21:14:45.672Z,0.20
2023-02-26T21:17:16.012Z,0.30
2023-02-26T21:19:46.097Z,0.30
2023-02-26T21:22:16.519Z,0.20
2023-02-26T21:24:47.168Z,0.30
2023-02-26T21:27:17.406Z,0.30
2023-02-26T21:29:47.451Z,0.20
2023-02-26T21:32:17.055Z,0.20
2023-02-26T21:34:47.985Z,0.30
2023-02-26T21:37:17.825Z,0.40
2023-02-26T21:39:47.485Z,0.30
2023-02-26T21:42:17.753Z,0.30
2023-02-26T21:44:49.435Z,0.30
2023-02-26T21:47:19.013Z,0.50
2023-02-26T21:49:48.355Z,0.40
2023-02-26T21:52:17.544Z,0.30
2023-02-26T21:54:46.668Z,0.40
2023-02-26T21:57:15.812Z,0.40
2023-02-26T21:59:44.872Z,0.30
2023-02-26T22:02:14.197Z,0.30
2023-02-26T22:04:43.656Z,0.40
2023-02-26T22:07:12.900Z,0.40
2023-02-26T22:09:42.867Z,0.40
2023-02-26T22:12:12.402Z,0.20
2023-02-26T22:14:41.743Z,0.50
2023-02-26T22:17:11.056Z,0.40
2023-02-26T22:19:40.553Z,0.30
2023-02-26T22:22:10.624Z,0.40
2023-02-26T22:24:41.770Z,0.60
2023-02-26T22:27:11.668Z,0.40
2023-02-26T22:29:40.616Z,0.30
2023-02-26T22:32:09.679Z,0.60
2023-02-26T22:34:38.954Z,0.60
2023-02-26T22:37:07.656Z,1.60
2023-02-26T22:39:36.773Z,2.20
2023-02-26T22:42:06.014Z,3.30
2023-02-26T22:44:34.918Z,28.80
2023-02-26T22:47:03.699Z,9.60
2023-02-26T22:49:32.534Z,3.90
2023-02-26T22:52:01.363Z,1.60
2023-02-26T22:54:30.512Z,0.40
2023-02-26T22:56:59.495Z,0.50
2023-02-26T22:59:28.628Z,0.90
2023-02-26T23:01:57.636Z,1.30
2023-02-26T23:04:26.531Z,1.40
2023-02-26T23:06:55.353Z,0.90
2023-02-26T23:09:25.218Z,0.70
2023-02-26T23:11:54.356Z,1.50
2023-02-26T23:14:23.799Z,1.40
2023-02-26T23:16:52.862Z,0.50
2023-02-26T23:19:22.341Z,0.30
2023-02-26T23:21:52.323Z,0.30
2023-02-26T23:24:21.404Z,0.50
2023-02-26T23:26:51.342Z,0.30
2023-02-26T23:29:20.634Z,0.40
2023-02-26T23:31:50.086Z,0.40
2023-02-26T23:34:19.644Z,0.40
2023-02-26T23:36:48.493Z,0.50
2023-02-26T23:39:18.132Z,1.50
2023-02-26T23:41:47.396Z,1.50
2023-02-26T23:44:16.806Z,1.40
2023-02-26T23:46:45.962Z,1.20
2023-02-26T23:49:16.582Z,0.90
2023-02-26T23:51:47.166Z,0.90
2023-02-26T23:54:16.319Z,1.00
2023-02-26T23:56:47.326Z,1.00
2023-02-26T23:59:18.335Z,1.40
